Barra de Sao Francisco, Brazil
Current Conditions -  °F | °C
As of 4:00 AM on Friday 31 Oct 2014 (Local Time) from SBVT Reporting Station
Light Rain Light Rain  
Wind Chill: 73°   Ceiling: 1200
Heat Index: 73°   Visibility: 4mi
Dew Point: 68°   Wind: 13mph
Humidity: 83%   Direction: 10°N
Pressure: 29.97"   Gusts: NA
Location:  18.75°S, 40.87°W
Report Text: SBVT 310600Z 01011KT 6000 -RA BKN012 OVC080 23/20 Q1015
Loading
Personal Weather Stations






























Interactive Weather Map
Tropical Storm Tracking
New forecast layout! Learn more

10-Day Weather Forecast

Advertisements
Track Severe Weather on mobile